sensor_id;sensor_type;location;lat;lon;timestamp;temperature;humidity
79760;DHT22;70512;42.122;24.732;2023-08-07T00:01:11;23.20;47.50
79760;DHT22;70512;42.122;24.732;2023-08-07T00:03:38;23.20;47.60
79760;DHT22;70512;42.122;24.732;2023-08-07T00:06:05;23.10;47.80
79760;DHT22;70512;42.122;24.732;2023-08-07T00:08:32;23.10;48.30
79760;DHT22;70512;42.122;24.732;2023-08-07T00:11:06;23.10;47.80
79760;DHT22;70512;42.122;24.732;2023-08-07T00:13:33;23.20;47.70
79760;DHT22;70512;42.122;24.732;2023-08-07T00:16:00;23.20;47.80
79760;DHT22;70512;42.122;24.732;2023-08-07T00:18:32;23.20;47.80
79760;DHT22;70512;42.122;24.732;2023-08-07T00:20:56;23.10;47.80
79760;DHT22;70512;42.122;24.732;2023-08-07T00:23:23;23.20;47.90
79760;DHT22;70512;42.122;24.732;2023-08-07T00:25:50;23.20;47.90
79760;DHT22;70512;42.122;24.732;2023-08-07T00:28:17;23.20;47.80
79760;DHT22;70512;42.122;24.732;2023-08-07T00:30:44;23.20;47.80
79760;DHT22;70512;42.122;24.732;2023-08-07T00:33:11;23.20;47.80
79760;DHT22;70512;42.122;24.732;2023-08-07T00:35:38;23.10;47.90
79760;DHT22;70512;42.122;24.732;2023-08-07T00:38:05;23.10;48.10
79760;DHT22;70512;42.122;24.732;2023-08-07T00:40:38;23.10;48.20
79760;DHT22;70512;42.122;24.732;2023-08-07T00:43:05;23.10;48.60
79760;DHT22;70512;42.122;24.732;2023-08-07T00:45:42;23.00;48.70
79760;DHT22;70512;42.122;24.732;2023-08-07T00:48:10;23.00;48.90
79760;DHT22;70512;42.122;24.732;2023-08-07T00:50:38;23.00;48.90
79760;DHT22;70512;42.122;24.732;2023-08-07T00:53:06;23.00;49.00
79760;DHT22;70512;42.122;24.732;2023-08-07T00:55:33;22.90;49.20
79760;DHT22;70512;42.122;24.732;2023-08-07T00:58:00;22.90;49.40
79760;DHT22;70512;42.122;24.732;2023-08-07T01:00:28;22.80;49.70
79760;DHT22;70512;42.122;24.732;2023-08-07T01:02:56;22.90;49.80
79760;DHT22;70512;42.122;24.732;2023-08-07T01:05:26;22.80;50.10
79760;DHT22;70512;42.122;24.732;2023-08-07T01:07:53;22.60;50.00
79760;DHT22;70512;42.122;24.732;2023-08-07T01:10:25;22.70;50.10
79760;DHT22;70512;42.122;24.732;2023-08-07T01:12:52;22.70;50.00
79760;DHT22;70512;42.122;24.732;2023-08-07T01:15:22;22.70;50.00
79760;DHT22;70512;42.122;24.732;2023-08-07T01:17:49;22.70;50.00
79760;DHT22;70512;42.122;24.732;2023-08-07T01:20:16;22.50;50.20
79760;DHT22;70512;42.122;24.732;2023-08-07T01:22:43;22.50;50.60
79760;DHT22;70512;42.122;24.732;2023-08-07T01:25:10;22.40;50.90
79760;DHT22;70512;42.122;24.732;2023-08-07T01:27:42;22.40;51.00
79760;DHT22;70512;42.122;24.732;2023-08-07T01:35:10;22.10;51.50
79760;DHT22;70512;42.122;24.732;2023-08-07T01:37:39;22.10;51.70
79760;DHT22;70512;42.122;24.732;2023-08-07T01:40:06;22.10;52.00
79760;DHT22;70512;42.122;24.732;2023-08-07T01:42:35;22.00;52.30
79760;DHT22;70512;42.122;24.732;2023-08-07T01:45:03;21.90;52.40
79760;DHT22;70512;42.122;24.732;2023-08-07T01:47:30;21.90;52.60
79760;DHT22;70512;42.122;24.732;2023-08-07T01:49:57;21.90;52.70
79760;DHT22;70512;42.122;24.732;2023-08-07T01:52:24;21.90;52.80
79760;DHT22;70512;42.122;24.732;2023-08-07T01:54:51;21.80;52.80
79760;DHT22;70512;42.122;24.732;2023-08-07T01:57:18;21.70;53.00
79760;DHT22;70512;42.122;24.732;2023-08-07T01:59:45;21.80;53.10
79760;DHT22;70512;42.122;24.732;2023-08-07T02:02:12;21.70;53.20
79760;DHT22;70512;42.122;24.732;2023-08-07T02:04:39;21.70;53.40
79760;DHT22;70512;42.122;24.732;2023-08-07T02:07:06;21.60;53.70
79760;DHT22;70512;42.122;24.732;2023-08-07T02:09:32;21.50;53.90
79760;DHT22;70512;42.122;24.732;2023-08-07T02:12:00;21.50;54.60
79760;DHT22;70512;42.122;24.732;2023-08-07T02:14:27;21.50;54.10
79760;DHT22;70512;42.122;24.732;2023-08-07T02:16:54;21.50;54.10
79760;DHT22;70512;42.122;24.732;2023-08-07T02:19:21;21.50;54.30
79760;DHT22;70512;42.122;24.732;2023-08-07T02:21:48;21.50;54.30
79760;DHT22;70512;42.122;24.732;2023-08-07T02:24:15;21.50;54.40
79760;DHT22;70512;42.122;24.732;2023-08-07T02:26:42;21.40;54.00
79760;DHT22;70512;42.122;24.732;2023-08-07T02:29:09;21.40;54.40
79760;DHT22;70512;42.122;24.732;2023-08-07T02:31:36;21.40;54.60
79760;DHT22;70512;42.122;24.732;2023-08-07T02:34:02;21.40;54.70
79760;DHT22;70512;42.122;24.732;2023-08-07T02:36:29;21.30;54.90
79760;DHT22;70512;42.122;24.732;2023-08-07T02:38:56;21.20;55.20
79760;DHT22;70512;42.122;24.732;2023-08-07T02:41:23;21.10;55.50
79760;DHT22;70512;42.122;24.732;2023-08-07T02:43:50;21.10;55.60
79760;DHT22;70512;42.122;24.732;2023-08-07T02:46:17;21.10;55.80
79760;DHT22;70512;42.122;24.732;2023-08-07T02:48:44;21.00;55.90
79760;DHT22;70512;42.122;24.732;2023-08-07T02:51:11;21.00;55.90
79760;DHT22;70512;42.122;24.732;2023-08-07T02:53:38;21.00;56.10
79760;DHT22;70512;42.122;24.732;2023-08-07T02:56:05;21.00;56.30
79760;DHT22;70512;42.122;24.732;2023-08-07T02:58:32;20.90;56.50
79760;DHT22;70512;42.122;24.732;2023-08-07T03:01:05;20.80;56.80
79760;DHT22;70512;42.122;24.732;2023-08-07T03:03:35;20.80;57.10
79760;DHT22;70512;42.122;24.732;2023-08-07T03:06:01;20.70;57.40
79760;DHT22;70512;42.122;24.732;2023-08-07T03:08:29;20.70;57.60
79760;DHT22;70512;42.122;24.732;2023-08-07T03:10:57;20.60;57.70
79760;DHT22;70512;42.122;24.732;2023-08-07T03:13:24;20.60;57.80
79760;DHT22;70512;42.122;24.732;2023-08-07T03:15:58;20.60;58.00
79760;DHT22;70512;42.122;24.732;2023-08-07T03:18:26;20.50;58.00
79760;DHT22;70512;42.122;24.732;2023-08-07T03:20:53;20.50;58.20
79760;DHT22;70512;42.122;24.732;2023-08-07T03:23:21;20.50;58.00
79760;DHT22;70512;42.122;24.732;2023-08-07T03:25:48;20.50;57.90
79760;DHT22;70512;42.122;24.732;2023-08-07T03:28:15;20.60;57.90
79760;DHT22;70512;42.122;24.732;2023-08-07T03:30:42;20.60;57.70
79760;DHT22;70512;42.122;24.732;2023-08-07T03:33:10;20.60;57.60
79760;DHT22;70512;42.122;24.732;2023-08-07T03:35:37;20.70;57.60
79760;DHT22;70512;42.122;24.732;2023-08-07T03:38:04;20.60;57.50
79760;DHT22;70512;42.122;24.732;2023-08-07T03:40:32;20.60;57.50
79760;DHT22;70512;42.122;24.732;2023-08-07T03:42:59;20.60;57.60
79760;DHT22;70512;42.122;24.732;2023-08-07T03:45:26;20.60;57.40
79760;DHT22;70512;42.122;24.732;2023-08-07T03:47:53;20.70;57.20
79760;DHT22;70512;42.122;24.732;2023-08-07T03:50:20;20.80;57.00
79760;DHT22;70512;42.122;24.732;2023-08-07T03:52:47;20.90;56.90
79760;DHT22;70512;42.122;24.732;2023-08-07T03:55:14;20.90;56.60
79760;DHT22;70512;42.122;24.732;2023-08-07T03:57:41;21.00;56.50
79760;DHT22;70512;42.122;24.732;2023-08-07T04:00:08;21.00;56.40
79760;DHT22;70512;42.122;24.732;2023-08-07T04:02:35;21.10;56.30
79760;DHT22;70512;42.122;24.732;2023-08-07T04:05:02;21.10;56.30
79760;DHT22;70512;42.122;24.732;2023-08-07T04:07:29;21.20;56.00
79760;DHT22;70512;42.122;24.732;2023-08-07T04:09:56;21.20;56.50
79760;DHT22;70512;42.122;24.732;2023-08-07T04:12:23;21.30;55.60
79760;DHT22;70512;42.122;24.732;2023-08-07T04:14:50;21.30;55.80
79760;DHT22;70512;42.122;24.732;2023-08-07T04:17:17;21.40;55.30
79760;DHT22;70512;42.122;24.732;2023-08-07T04:19:44;21.50;55.20
79760;DHT22;70512;42.122;24.732;2023-08-07T04:22:11;21.50;55.10
79760;DHT22;70512;42.122;24.732;2023-08-07T04:24:38;21.50;55.10
79760;DHT22;70512;42.122;24.732;2023-08-07T04:27:05;21.50;55.00
79760;DHT22;70512;42.122;24.732;2023-08-07T04:29:32;21.50;55.20
79760;DHT22;70512;42.122;24.732;2023-08-07T04:31:59;21.50;55.30
79760;DHT22;70512;42.122;24.732;2023-08-07T04:34:26;21.50;55.40
79760;DHT22;70512;42.122;24.732;2023-08-07T04:36:53;21.50;55.30
79760;DHT22;70512;42.122;24.732;2023-08-07T04:39:21;21.50;55.00
79760;DHT22;70512;42.122;24.732;2023-08-07T04:41:48;21.60;55.10
79760;DHT22;70512;42.122;24.732;2023-08-07T04:44:18;21.60;55.00
79760;DHT22;70512;42.122;24.732;2023-08-07T04:46:45;21.60;54.90
79760;DHT22;70512;42.122;24.732;2023-08-07T04:49:12;21.60;55.10
79760;DHT22;70512;42.122;24.732;2023-08-07T04:51:39;21.70;54.80
79760;DHT22;70512;42.122;24.732;2023-08-07T04:54:06;21.70;54.50
79760;DHT22;70512;42.122;24.732;2023-08-07T04:56:34;21.70;54.70
79760;DHT22;70512;42.122;24.732;2023-08-07T04:59:01;21.70;54.40
79760;DHT22;70512;42.122;24.732;2023-08-07T05:01:28;21.80;54.40
79760;DHT22;70512;42.122;24.732;2023-08-07T05:03:55;21.80;54.20
79760;DHT22;70512;42.122;24.732;2023-08-07T05:06:22;21.90;53.90
79760;DHT22;70512;42.122;24.732;2023-08-07T05:08:50;21.90;53.90
79760;DHT22;70512;42.122;24.732;2023-08-07T05:11:17;21.90;53.50
79760;DHT22;70512;42.122;24.732;2023-08-07T05:13:45;21.90;53.70
79760;DHT22;70512;42.122;24.732;2023-08-07T05:16:12;22.00;53.60
79760;DHT22;70512;42.122;24.732;2023-08-07T05:18:39;22.00;53.70
79760;DHT22;70512;42.122;24.732;2023-08-07T05:21:06;22.10;53.50
79760;DHT22;70512;42.122;24.732;2023-08-07T05:23:34;22.10;53.20
79760;DHT22;70512;42.122;24.732;2023-08-07T05:26:01;22.20;53.10
79760;DHT22;70512;42.122;24.732;2023-08-07T05:28:29;22.20;53.20
79760;DHT22;70512;42.122;24.732;2023-08-07T05:30:56;22.20;53.00
79760;DHT22;70512;42.122;24.732;2023-08-07T05:33:23;22.30;52.90
79760;DHT22;70512;42.122;24.732;2023-08-07T05:35:50;22.30;52.80
79760;DHT22;70512;42.122;24.732;2023-08-07T05:38:18;22.30;52.80
79760;DHT22;70512;42.122;24.732;2023-08-07T05:40:45;22.40;52.90
79760;DHT22;70512;42.122;24.732;2023-08-07T05:43:12;22.50;52.60
79760;DHT22;70512;42.122;24.732;2023-08-07T05:45:39;22.50;52.50
79760;DHT22;70512;42.122;24.732;2023-08-07T05:48:06;22.60;52.10
79760;DHT22;70512;42.122;24.732;2023-08-07T05:50:34;22.70;51.90
79760;DHT22;70512;42.122;24.732;2023-08-07T05:53:01;22.70;51.90
79760;DHT22;70512;42.122;24.732;2023-08-07T05:55:29;22.80;51.40
79760;DHT22;70512;42.122;24.732;2023-08-07T05:57:55;22.80;51.10
79760;DHT22;70512;42.122;24.732;2023-08-07T06:00:22;22.80;51.20
79760;DHT22;70512;42.122;24.732;2023-08-07T06:02:49;22.80;51.00
79760;DHT22;70512;42.122;24.732;2023-08-07T06:05:16;22.80;50.70
79760;DHT22;70512;42.122;24.732;2023-08-07T06:07:43;22.80;51.10
79760;DHT22;70512;42.122;24.732;2023-08-07T06:10:10;22.80;51.10
79760;DHT22;70512;42.122;24.732;2023-08-07T06:12:37;22.80;50.70
79760;DHT22;70512;42.122;24.732;2023-08-07T06:15:04;22.90;50.30
79760;DHT22;70512;42.122;24.732;2023-08-07T06:17:32;22.90;50.00
79760;DHT22;70512;42.122;24.732;2023-08-07T06:19:59;23.00;50.20
79760;DHT22;70512;42.122;24.732;2023-08-07T06:22:25;23.10;50.70
79760;DHT22;70512;42.122;24.732;2023-08-07T06:24:52;23.10;49.40
79760;DHT22;70512;42.122;24.732;2023-08-07T06:27:20;23.20;49.30
79760;DHT22;70512;42.122;24.732;2023-08-07T06:29:48;23.30;49.10
79760;DHT22;70512;42.122;24.732;2023-08-07T06:32:15;23.40;48.90
79760;DHT22;70512;42.122;24.732;2023-08-07T06:34:43;23.50;48.50
79760;DHT22;70512;42.122;24.732;2023-08-07T06:37:12;23.40;48.60
79760;DHT22;70512;42.122;24.732;2023-08-07T06:39:39;23.50;48.60
79760;DHT22;70512;42.122;24.732;2023-08-07T06:42:06;23.50;48.60
79760;DHT22;70512;42.122;24.732;2023-08-07T06:44:33;23.50;48.40
79760;DHT22;70512;42.122;24.732;2023-08-07T06:47:00;23.60;47.80
79760;DHT22;70512;42.122;24.732;2023-08-07T06:49:27;23.70;47.90
79760;DHT22;70512;42.122;24.732;2023-08-07T06:51:54;23.90;47.80
79760;DHT22;70512;42.122;24.732;2023-08-07T06:54:22;23.90;47.70
79760;DHT22;70512;42.122;24.732;2023-08-07T06:56:49;24.00;47.80
79760;DHT22;70512;42.122;24.732;2023-08-07T06:59:15;24.10;47.50
79760;DHT22;70512;42.122;24.732;2023-08-07T07:01:42;24.10;47.10
79760;DHT22;70512;42.122;24.732;2023-08-07T07:04:09;24.20;46.60
79760;DHT22;70512;42.122;24.732;2023-08-07T07:06:37;24.20;46.90
79760;DHT22;70512;42.122;24.732;2023-08-07T07:09:04;24.30;46.40
79760;DHT22;70512;42.122;24.732;2023-08-07T07:11:31;24.30;45.80
79760;DHT22;70512;42.122;24.732;2023-08-07T07:13:58;24.40;46.40
79760;DHT22;70512;42.122;24.732;2023-08-07T07:16:24;24.40;45.80
79760;DHT22;70512;42.122;24.732;2023-08-07T07:18:52;24.40;46.00
79760;DHT22;70512;42.122;24.732;2023-08-07T07:21:19;24.40;45.70
79760;DHT22;70512;42.122;24.732;2023-08-07T07:23:46;24.50;45.40
79760;DHT22;70512;42.122;24.732;2023-08-07T07:26:13;24.50;45.40
79760;DHT22;70512;42.122;24.732;2023-08-07T07:28:40;24.60;45.40
79760;DHT22;70512;42.122;24.732;2023-08-07T07:31:07;24.80;45.50
79760;DHT22;70512;42.122;24.732;2023-08-07T07:33:35;24.80;44.90
79760;DHT22;70512;42.122;24.732;2023-08-07T07:36:02;24.90;44.90
79760;DHT22;70512;42.122;24.732;2023-08-07T07:38:29;25.00;44.60
79760;DHT22;70512;42.122;24.732;2023-08-07T07:40:56;25.10;44.20
79760;DHT22;70512;42.122;24.732;2023-08-07T07:43:23;25.10;44.10
79760;DHT22;70512;42.122;24.732;2023-08-07T07:45:50;25.20;43.60
79760;DHT22;70512;42.122;24.732;2023-08-07T07:48:17;25.30;43.60
79760;DHT22;70512;42.122;24.732;2023-08-07T07:50:44;25.40;43.40
79760;DHT22;70512;42.122;24.732;2023-08-07T07:53:11;25.40;42.70
79760;DHT22;70512;42.122;24.732;2023-08-07T07:55:38;25.50;42.80
79760;DHT22;70512;42.122;24.732;2023-08-07T07:58:05;25.50;42.10
79760;DHT22;70512;42.122;24.732;2023-08-07T08:00:32;25.70;41.40
79760;DHT22;70512;42.122;24.732;2023-08-07T08:03:06;25.80;40.40
79760;DHT22;70512;42.122;24.732;2023-08-07T08:05:33;25.90;39.50
79760;DHT22;70512;42.122;24.732;2023-08-07T08:08:03;26.00;39.40
79760;DHT22;70512;42.122;24.732;2023-08-07T08:10:30;26.10;39.60
79760;DHT22;70512;42.122;24.732;2023-08-07T08:12:57;26.20;39.90
79760;DHT22;70512;42.122;24.732;2023-08-07T08:15:24;26.30;38.60
79760;DHT22;70512;42.122;24.732;2023-08-07T08:17:51;26.40;37.50
79760;DHT22;70512;42.122;24.732;2023-08-07T08:20:18;26.40;36.80
79760;DHT22;70512;42.122;24.732;2023-08-07T08:22:45;26.50;36.50
79760;DHT22;70512;42.122;24.732;2023-08-07T08:25:13;26.60;35.80
79760;DHT22;70512;42.122;24.732;2023-08-07T08:27:40;26.60;36.00
79760;DHT22;70512;42.122;24.732;2023-08-07T08:30:07;26.70;36.00
79760;DHT22;70512;42.122;24.732;2023-08-07T08:32:34;26.70;35.70
79760;DHT22;70512;42.122;24.732;2023-08-07T08:35:01;26.70;36.20
79760;DHT22;70512;42.122;24.732;2023-08-07T08:37:28;26.70;36.00
79760;DHT22;70512;42.122;24.732;2023-08-07T08:39:55;26.70;36.10
79760;DHT22;70512;42.122;24.732;2023-08-07T08:42:22;26.80;36.10
79760;DHT22;70512;42.122;24.732;2023-08-07T08:44:55;26.80;36.20
79760;DHT22;70512;42.122;24.732;2023-08-07T08:47:18;26.80;35.50
79760;DHT22;70512;42.122;24.732;2023-08-07T08:49:49;26.90;35.10
79760;DHT22;70512;42.122;24.732;2023-08-07T08:52:16;26.90;35.50
79760;DHT22;70512;42.122;24.732;2023-08-07T08:54:43;27.00;35.20
79760;DHT22;70512;42.122;24.732;2023-08-07T09:41:26;28.40;32.10
79760;DHT22;70512;42.122;24.732;2023-08-07T09:43:55;28.50;31.20
79760;DHT22;70512;42.122;24.732;2023-08-07T09:46:22;28.60;31.00
79760;DHT22;70512;42.122;24.732;2023-08-07T09:48:49;28.50;30.80
79760;DHT22;70512;42.122;24.732;2023-08-07T09:51:16;28.40;30.50
79760;DHT22;70512;42.122;24.732;2023-08-07T09:53:43;28.50;31.50
79760;DHT22;70512;42.122;24.732;2023-08-07T09:56:10;28.60;30.90
79760;DHT22;70512;42.122;24.732;2023-08-07T09:58:43;28.60;31.10
79760;DHT22;70512;42.122;24.732;2023-08-07T10:01:08;28.70;30.60
79760;DHT22;70512;42.122;24.732;2023-08-07T10:03:35;28.70;30.40
79760;DHT22;70512;42.122;24.732;2023-08-07T10:06:02;28.80;30.50
79760;DHT22;70512;42.122;24.732;2023-08-07T10:08:29;29.00;30.00
79760;DHT22;70512;42.122;24.732;2023-08-07T10:10:58;29.20;30.10
79760;DHT22;70512;42.122;24.732;2023-08-07T10:13:25;29.30;30.00
79760;DHT22;70512;42.122;24.732;2023-08-07T10:15:53;29.20;29.20
79760;DHT22;70512;42.122;24.732;2023-08-07T10:18:22;29.30;29.20
79760;DHT22;70512;42.122;24.732;2023-08-07T10:20:49;29.60;29.20
79760;DHT22;70512;42.122;24.732;2023-08-07T10:23:17;29.70;28.90
79760;DHT22;70512;42.122;24.732;2023-08-07T10:25:44;29.70;29.50
79760;DHT22;70512;42.122;24.732;2023-08-07T10:28:16;29.70;28.80
79760;DHT22;70512;42.122;24.732;2023-08-07T10:30:44;29.70;28.70
79760;DHT22;70512;42.122;24.732;2023-08-07T10:33:11;29.80;29.00
79760;DHT22;70512;42.122;24.732;2023-08-07T10:35:44;29.80;29.10
79760;DHT22;70512;42.122;24.732;2023-08-07T10:38:08;30.00;28.90
79760;DHT22;70512;42.122;24.732;2023-08-07T10:43:20;30.20;28.50
79760;DHT22;70512;42.122;24.732;2023-08-07T10:45:49;30.40;28.60
79760;DHT22;70512;42.122;24.732;2023-08-07T10:48:19;30.30;28.40
79760;DHT22;70512;42.122;24.732;2023-08-07T10:51:05;30.40;28.40
79760;DHT22;70512;42.122;24.732;2023-08-07T10:53:36;30.50;28.40
79760;DHT22;70512;42.122;24.732;2023-08-07T10:56:03;30.70;28.40
79760;DHT22;70512;42.122;24.732;2023-08-07T10:58:31;31.00;28.10
79760;DHT22;70512;42.122;24.732;2023-08-07T11:03:48;34.50;25.50
79760;DHT22;70512;42.122;24.732;2023-08-07T11:06:14;37.60;22.50
79760;DHT22;70512;42.122;24.732;2023-08-07T11:08:41;40.00;20.80
79760;DHT22;70512;42.122;24.732;2023-08-07T11:11:08;42.00;19.50
79760;DHT22;70512;42.122;24.732;2023-08-07T11:13:34;43.50;17.90
79760;DHT22;70512;42.122;24.732;2023-08-07T11:16:02;44.50;16.10
79760;DHT22;70512;42.122;24.732;2023-08-07T11:18:30;45.00;16.20
79760;DHT22;70512;42.122;24.732;2023-08-07T11:20:57;46.10;15.00
79760;DHT22;70512;42.122;24.732;2023-08-07T11:23:27;46.40;14.90
79760;DHT22;70512;42.122;24.732;2023-08-07T11:25:54;46.40;14.50
79760;DHT22;70512;42.122;24.732;2023-08-07T11:28:22;46.90;14.70
79760;DHT22;70512;42.122;24.732;2023-08-07T11:30:50;47.40;14.40
79760;DHT22;70512;42.122;24.732;2023-08-07T11:33:17;47.10;14.30
79760;DHT22;70512;42.122;24.732;2023-08-07T11:35:45;48.10;14.30
79760;DHT22;70512;42.122;24.732;2023-08-07T11:38:17;48.50;14.10
79760;DHT22;70512;42.122;24.732;2023-08-07T11:40:41;48.30;13.60
79760;DHT22;70512;42.122;24.732;2023-08-07T11:43:08;48.50;14.00
79760;DHT22;70512;42.122;24.732;2023-08-07T11:45:36;49.70;13.70
79760;DHT22;70512;42.122;24.732;2023-08-07T11:48:03;50.60;13.50
79760;DHT22;70512;42.122;24.732;2023-08-07T11:50:30;51.90;12.70
79760;DHT22;70512;42.122;24.732;2023-08-07T11:52:57;51.80;12.40
79760;DHT22;70512;42.122;24.732;2023-08-07T11:55:27;50.70;13.30
79760;DHT22;70512;42.122;24.732;2023-08-07T11:57:55;52.00;12.40
79760;DHT22;70512;42.122;24.732;2023-08-07T12:00:24;53.10;12.10
79760;DHT22;70512;42.122;24.732;2023-08-07T12:02:52;53.00;11.80
79760;DHT22;70512;42.122;24.732;2023-08-07T12:05:19;52.60;12.10
79760;DHT22;70512;42.122;24.732;2023-08-07T12:07:47;51.80;12.10
79760;DHT22;70512;42.122;24.732;2023-08-07T12:10:14;50.40;13.10
79760;DHT22;70512;42.122;24.732;2023-08-07T12:12:42;51.70;12.80
79760;DHT22;70512;42.122;24.732;2023-08-07T12:15:10;52.50;11.80
79760;DHT22;70512;42.122;24.732;2023-08-07T12:17:37;53.20;12.20
79760;DHT22;70512;42.122;24.732;2023-08-07T12:20:07;53.80;11.80
79760;DHT22;70512;42.122;24.732;2023-08-07T12:22:35;54.30;11.50
79760;DHT22;70512;42.122;24.732;2023-08-07T12:25:03;54.50;11.20
79760;DHT22;70512;42.122;24.732;2023-08-07T12:27:30;53.30;11.70
79760;DHT22;70512;42.122;24.732;2023-08-07T12:29:57;52.30;12.00
79760;DHT22;70512;42.122;24.732;2023-08-07T12:32:24;51.70;12.00
79760;DHT22;70512;42.122;24.732;2023-08-07T12:34:51;51.50;12.60
79760;DHT22;70512;42.122;24.732;2023-08-07T12:37:19;52.90;12.20
79760;DHT22;70512;42.122;24.732;2023-08-07T12:39:46;54.10;11.80
79760;DHT22;70512;42.122;24.732;2023-08-07T12:42:13;55.00;11.50
79760;DHT22;70512;42.122;24.732;2023-08-07T12:44:40;55.40;11.10
79760;DHT22;70512;42.122;24.732;2023-08-07T12:47:09;56.00;11.40
79760;DHT22;70512;42.122;24.732;2023-08-07T12:49:36;55.90;11.10
79760;DHT22;70512;42.122;24.732;2023-08-07T12:52:03;56.10;11.10
79760;DHT22;70512;42.122;24.732;2023-08-07T12:54:30;56.10;11.20
79760;DHT22;70512;42.122;24.732;2023-08-07T12:56:57;55.90;11.10
79760;DHT22;70512;42.122;24.732;2023-08-07T12:59:24;56.20;11.30
79760;DHT22;70512;42.122;24.732;2023-08-07T13:01:50;56.50;11.10
79760;DHT22;70512;42.122;24.732;2023-08-07T13:04:19;53.10;11.70
79760;DHT22;70512;42.122;24.732;2023-08-07T13:06:46;51.80;12.90
79760;DHT22;70512;42.122;24.732;2023-08-07T13:09:14;51.30;13.30
79760;DHT22;70512;42.122;24.732;2023-08-07T13:11:41;52.90;12.50
79760;DHT22;70512;42.122;24.732;2023-08-07T13:14:08;54.00;12.00
79760;DHT22;70512;42.122;24.732;2023-08-07T13:16:35;53.90;12.00
79760;DHT22;70512;42.122;24.732;2023-08-07T13:19:02;54.60;11.40
79760;DHT22;70512;42.122;24.732;2023-08-07T13:21:29;55.10;11.20
79760;DHT22;70512;42.122;24.732;2023-08-07T13:23:56;55.50;11.30
79760;DHT22;70512;42.122;24.732;2023-08-07T13:26:23;55.00;11.00
79760;DHT22;70512;42.122;24.732;2023-08-07T13:28:49;55.30;11.20
79760;DHT22;70512;42.122;24.732;2023-08-07T13:31:16;55.30;11.20
79760;DHT22;70512;42.122;24.732;2023-08-07T13:33:43;52.60;11.90
79760;DHT22;70512;42.122;24.732;2023-08-07T13:36:10;50.90;12.70
79760;DHT22;70512;42.122;24.732;2023-08-07T13:38:37;50.10;13.50
79760;DHT22;70512;42.122;24.732;2023-08-07T13:41:04;50.70;13.20
79760;DHT22;70512;42.122;24.732;2023-08-07T13:43:31;50.80;13.30
79760;DHT22;70512;42.122;24.732;2023-08-07T13:45:57;50.30;13.60
79760;DHT22;70512;42.122;24.732;2023-08-07T13:48:24;49.30;14.20
79760;DHT22;70512;42.122;24.732;2023-08-07T13:50:54;48.30;14.70
79760;DHT22;70512;42.122;24.732;2023-08-07T13:53:21;47.30;15.40
79760;DHT22;70512;42.122;24.732;2023-08-07T13:55:49;46.10;15.30
79760;DHT22;70512;42.122;24.732;2023-08-07T13:58:16;45.40;16.00
79760;DHT22;70512;42.122;24.732;2023-08-07T14:00:43;45.00;16.70
79760;DHT22;70512;42.122;24.732;2023-08-07T14:03:10;44.60;16.70
79760;DHT22;70512;42.122;24.732;2023-08-07T14:05:38;44.30;16.80
79760;DHT22;70512;42.122;24.732;2023-08-07T14:08:05;45.00;16.40
79760;DHT22;70512;42.122;24.732;2023-08-07T14:10:32;44.20;16.70
79760;DHT22;70512;42.122;24.732;2023-08-07T14:12:59;43.50;17.50
79760;DHT22;70512;42.122;24.732;2023-08-07T14:15:26;42.80;18.20
79760;DHT22;70512;42.122;24.732;2023-08-07T14:17:53;41.90;18.90
79760;DHT22;70512;42.122;24.732;2023-08-07T14:20:21;41.40;19.40
79760;DHT22;70512;42.122;24.732;2023-08-07T14:22:48;42.30;18.80
79760;DHT22;70512;42.122;24.732;2023-08-07T14:25:15;43.40;17.80
79760;DHT22;70512;42.122;24.732;2023-08-07T14:27:42;44.60;16.90
79760;DHT22;70512;42.122;24.732;2023-08-07T14:30:09;45.60;16.40
79760;DHT22;70512;42.122;24.732;2023-08-07T14:32:36;46.10;15.90
79760;DHT22;70512;42.122;24.732;2023-08-07T14:35:03;45.90;16.10
79760;DHT22;70512;42.122;24.732;2023-08-07T14:37:30;45.10;16.50
79760;DHT22;70512;42.122;24.732;2023-08-07T14:39:57;44.60;16.80
79760;DHT22;70512;42.122;24.732;2023-08-07T14:42:24;44.60;16.50
79760;DHT22;70512;42.122;24.732;2023-08-07T14:44:51;44.80;16.40
79760;DHT22;70512;42.122;24.732;2023-08-07T14:47:18;44.50;16.80
79760;DHT22;70512;42.122;24.732;2023-08-07T14:49:44;44.70;16.80
79760;DHT22;70512;42.122;24.732;2023-08-07T14:52:11;44.20;17.10
79760;DHT22;70512;42.122;24.732;2023-08-07T14:54:38;44.00;17.30
79760;DHT22;70512;42.122;24.732;2023-08-07T14:57:05;43.40;17.20
79760;DHT22;70512;42.122;24.732;2023-08-07T14:59:32;42.50;18.30
79760;DHT22;70512;42.122;24.732;2023-08-07T15:01:59;41.40;19.00
79760;DHT22;70512;42.122;24.732;2023-08-07T15:04:26;41.00;19.50
79760;DHT22;70512;42.122;24.732;2023-08-07T15:06:53;40.50;19.70
79760;DHT22;70512;42.122;24.732;2023-08-07T15:09:21;40.50;19.60
79760;DHT22;70512;42.122;24.732;2023-08-07T15:11:50;40.20;19.80
79760;DHT22;70512;42.122;24.732;2023-08-07T15:14:17;39.80;20.10
79760;DHT22;70512;42.122;24.732;2023-08-07T15:16:44;39.10;20.70
79760;DHT22;70512;42.122;24.732;2023-08-07T15:19:11;39.30;20.50
79760;DHT22;70512;42.122;24.732;2023-08-07T15:21:38;40.10;20.00
79760;DHT22;70512;42.122;24.732;2023-08-07T15:24:05;41.70;19.10
79760;DHT22;70512;42.122;24.732;2023-08-07T15:26:32;43.50;17.50
79760;DHT22;70512;42.122;24.732;2023-08-07T15:28:59;44.60;16.70
79760;DHT22;70512;42.122;24.732;2023-08-07T15:31:26;45.10;16.10
79760;DHT22;70512;42.122;24.732;2023-08-07T15:33:53;45.20;16.10
79760;DHT22;70512;42.122;24.732;2023-08-07T15:36:21;46.20;15.60
79760;DHT22;70512;42.122;24.732;2023-08-07T15:38:48;46.00;15.50
79760;DHT22;70512;42.122;24.732;2023-08-07T15:41:15;45.90;15.80
79760;DHT22;70512;42.122;24.732;2023-08-07T15:43:42;44.90;16.30
79760;DHT22;70512;42.122;24.732;2023-08-07T15:46:09;44.60;16.60
79760;DHT22;70512;42.122;24.732;2023-08-07T15:48:36;45.10;16.10
79760;DHT22;70512;42.122;24.732;2023-08-07T15:51:03;45.10;16.10
79760;DHT22;70512;42.122;24.732;2023-08-07T15:53:35;43.00;17.20
79760;DHT22;70512;42.122;24.732;2023-08-07T15:55:58;41.60;18.60
79760;DHT22;70512;42.122;24.732;2023-08-07T15:58:25;40.60;19.30
79760;DHT22;70512;42.122;24.732;2023-08-07T16:00:52;39.80;20.00
79760;DHT22;70512;42.122;24.732;2023-08-07T16:03:19;39.00;20.90
79760;DHT22;70512;42.122;24.732;2023-08-07T16:05:48;38.40;22.00
79760;DHT22;70512;42.122;24.732;2023-08-07T16:08:15;37.90;22.10
79760;DHT22;70512;42.122;24.732;2023-08-07T16:10:42;37.40;23.20